Time;durP1;ratioP1;P1;durP2;ratioP2;P2;SDS_P1;SDS_P2;PMS_P1;PMS_P2;Temp;Humidity;BMP_temperature;BMP_pressure;BME280_temperature;BME280_humidity;BME280_pressure;Samples;Min_cycle;Max_cycle;Signal;HPM_P1;HPM_P2
2022/09/12 00:00:14;;;;;;;9.63;8.50;;;14.00;99.90;;;;;;5035160;28;20061;-69
2022/09/12 00:02:40;;;;;;;10.80;9.90;;;14.00;99.90;;;;;;5039769;28;20094;-68
2022/09/12 00:05:06;;;;;;;10.98;9.88;;;13.90;99.90;;;;;;5041769;28;20082;-69
2022/09/12 00:07:33;;;;;;;11.02;10.02;;;13.90;99.90;;;;;;5054112;28;20045;-69
2022/09/12 00:09:58;;;;;;;12.25;11.13;;;13.90;99.90;;;;;;5057742;28;20469;-68
2022/09/12 00:12:24;;;;;;;9.93;9.13;;;13.80;99.90;;;;;;5056023;28;20194;-68
2022/09/12 00:14:50;;;;;;;9.55;8.50;;;13.80;99.90;;;;;;5038702;28;20088;-68
2022/09/12 00:17:15;;;;;;;11.77;10.55;;;13.80;99.90;;;;;;5033938;28;20438;-68
2022/09/12 00:19:41;;;;;;;9.23;8.32;;;13.70;99.90;;;;;;5033320;28;20113;-68
2022/09/12 00:22:07;;;;;;;8.82;8.02;;;13.80;99.90;;;;;;5050893;28;20393;-68
2022/09/12 00:24:33;;;;;;;11.30;10.10;;;13.70;99.90;;;;;;5019818;28;20037;-69
2022/09/12 00:26:58;;;;;;;10.07;9.18;;;13.70;99.90;;;;;;5054061;28;20041;-69
2022/09/12 00:29:24;;;;;;;12.50;11.25;;;13.60;99.90;;;;;;5021716;28;20056;-68
2022/09/12 00:31:50;;;;;;;11.07;10.10;;;13.70;99.90;;;;;;5055358;28;20048;-69
2022/09/12 00:34:16;;;;;;;10.73;9.73;;;13.60;99.90;;;;;;5058248;28;20075;-69
2022/09/12 00:36:42;;;;;;;14.20;11.95;;;13.50;99.90;;;;;;5056828;28;20052;-69
2022/09/12 00:39:09;;;;;;;14.45;12.75;;;13.60;99.90;;;;;;5047921;28;20108;-69
2022/09/12 00:41:38;;;;;;;11.80;10.70;;;13.60;99.90;;;;;;5053451;28;20040;-68
2022/09/12 00:44:09;;;;;;;12.05;10.98;;;13.60;99.90;;;;;;5047650;28;20049;-68
2022/09/12 00:46:53;;;;;;;12.65;11.43;;;13.50;99.90;;;;;;5055836;28;20029;-69
2022/09/12 00:49:31;;;;;;;13.63;12.32;;;13.50;99.90;;;;;;5019409;28;20040;-69
2022/09/12 00:51:59;;;;;;;12.55;11.32;;;13.50;99.90;;;;;;5058447;28;20364;-68
2022/09/12 00:54:30;;;;;;;12.73;11.55;;;13.40;99.90;;;;;;5041844;28;20386;-70
2022/09/12 00:57:03;;;;;;;13.60;12.30;;;13.40;99.90;;;;;;5024495;28;20052;-69
2022/09/12 00:59:34;;;;;;;12.38;11.25;;;13.40;99.90;;;;;;5039634;28;20083;-68
2022/09/12 01:01:59;;;;;;;12.95;11.85;;;13.40;99.90;;;;;;5026852;28;20047;-68
2022/09/12 01:04:26;;;;;;;11.52;10.50;;;13.40;99.90;;;;;;5048166;28;20124;-69
2022/09/12 01:06:54;;;;;;;12.70;11.40;;;13.30;99.90;;;;;;5042647;28;20065;-69
2022/09/12 01:09:22;;;;;;;13.88;12.48;;;13.30;99.90;;;;;;5054030;28;20041;-68
2022/09/12 01:11:49;;;;;;;15.55;13.80;;;13.40;99.90;;;;;;5025757;28;20111;-68
2022/09/12 01:14:16;;;;;;;17.05;14.82;;;13.30;99.90;;;;;;5059524;28;20041;-68
2022/09/12 01:16:44;;;;;;;15.60;14.30;;;13.30;99.90;;;;;;5055907;28;20138;-69
2022/09/12 01:19:37;;;;;;;15.68;14.07;;;13.30;99.90;;;;;;5022640;28;20180;-69
2022/09/12 01:22:30;;;;;;;14.35;12.95;;;13.30;99.90;;;;;;5057918;28;20135;-69
2022/09/12 01:25:27;;;;;;;14.68;13.30;;;13.20;99.90;;;;;;5023579;28;20044;-68
2022/09/12 01:28:21;;;;;;;15.30;13.90;;;13.20;99.90;;;;;;5024766;28;20064;-68
2022/09/12 01:31:09;;;;;;;17.48;15.52;;;13.20;99.90;;;;;;5054518;28;20045;-68
2022/09/12 01:33:44;;;;;;;16.10;14.65;;;13.20;99.90;;;;;;5054573;28;20044;-69
2022/09/12 01:36:44;;;;;;;18.30;16.00;;;13.10;99.90;;;;;;5024888;28;20178;-68
2022/09/12 01:39:27;;;;;;;17.20;15.52;;;13.10;99.90;;;;;;5019133;28;20045;-69
2022/09/12 01:42:17;;;;;;;18.30;16.00;;;13.10;99.90;;;;;;5056269;28;20130;-69
2022/09/12 01:44:54;;;;;;;16.90;15.40;;;13.10;99.90;;;;;;5055101;28;20091;-68
2022/09/12 01:47:29;;;;;;;19.27;17.38;;;13.10;99.90;;;;;;5056241;28;20037;-69
2022/09/12 01:50:18;;;;;;;21.42;19.13;;;13.00;99.90;;;;;;5053880;28;20041;-69
2022/09/12 01:52:51;;;;;;;18.45;16.70;;;13.00;99.90;;;;;;5054757;28;20065;-69
2022/09/12 01:55:27;;;;;;;23.20;18.55;;;13.00;99.90;;;;;;5018384;28;20048;-69
2022/09/12 01:58:13;;;;;;;23.25;20.75;;;13.00;99.90;;;;;;5025511;28;20128;-69
2022/09/12 02:01:10;;;;;;;22.73;20.33;;;13.00;99.90;;;;;;5056871;28;20053;-69
2022/09/12 02:04:03;;;;;;;20.70;18.65;;;12.90;99.90;;;;;;5017164;28;20045;-69
2022/09/12 02:06:34;;;;;;;20.05;18.15;;;12.90;99.90;;;;;;5038323;28;20050;-69
2022/09/12 02:09:09;;;;;;;24.33;21.60;;;12.90;99.90;;;;;;5057394;28;20128;-69
2022/09/12 02:11:39;;;;;;;25.15;22.48;;;12.90;99.90;;;;;;5052461;28;20485;-69
2022/09/12 02:14:24;;;;;;;22.88;20.75;;;13.00;99.90;;;;;;5025530;28;20041;-69
2022/09/12 02:16:54;;;;;;;24.85;22.20;;;12.90;99.90;;;;;;5029636;28;20076;-69
2022/09/12 02:19:24;;;;;;;26.48;23.73;;;12.90;99.90;;;;;;5053317;28;20041;-68
2022/09/12 02:21:54;;;;;;;30.58;26.05;;;12.90;99.90;;;;;;5054861;28;20049;-68
2022/09/12 02:24:23;;;;;;;27.48;24.58;;;12.90;99.90;;;;;;5056124;28;20473;-68
2022/09/12 02:26:56;;;;;;;25.33;22.73;;;12.90;99.90;;;;;;5019936;28;20064;-69
2022/09/12 02:29:22;;;;;;;25.77;23.17;;;12.90;99.90;;;;;;5036151;28;20052;-68
2022/09/12 02:31:59;;;;;;;31.60;26.20;;;12.90;99.90;;;;;;5058272;28;20124;-69
2022/09/12 02:34:40;;;;;;;23.58;21.27;;;12.90;99.90;;;;;;5021539;28;20440;-69
2022/09/12 02:37:36;;;;;;;28.58;25.48;;;13.00;99.90;;;;;;5021767;28;20120;-68
2022/09/12 02:40:02;;;;;;;29.58;24.83;;;12.90;99.90;;;;;;5070878;28;20053;-69
2022/09/12 02:42:28;;;;;;;28.48;24.40;;;12.90;99.90;;;;;;5047019;28;20037;-69
2022/09/12 02:44:55;;;;;;;28.60;24.35;;;12.90;99.90;;;;;;5028924;28;20111;-68
2022/09/12 02:47:33;;;;;;;24.83;22.33;;;12.90;99.90;;;;;;5018534;28;20482;-68
2022/09/12 02:49:59;;;;;;;26.33;23.58;;;12.90;99.90;;;;;;5054044;28;20045;-68
2022/09/12 02:52:27;;;;;;;28.98;24.65;;;12.90;99.90;;;;;;5052221;28;20399;-68
2022/09/12 02:54:54;;;;;;;25.65;23.05;;;12.90;99.90;;;;;;5058490;28;20041;-68
2022/09/12 02:57:20;;;;;;;25.67;23.08;;;12.90;99.90;;;;;;5055666;28;20444;-69
2022/09/12 02:59:47;;;;;;;30.77;26.65;;;12.80;99.90;;;;;;5018790;28;20136;-69
2022/09/12 03:02:31;;;;;;;34.67;28.85;;;12.80;99.90;;;;;;5053539;28;20443;-69
2022/09/12 03:05:09;;;;;;;32.30;26.83;;;12.80;99.90;;;;;;5056661;28;20076;-69
2022/09/12 03:07:43;;;;;;;29.90;25.58;;;12.80;99.90;;;;;;5039945;28;20096;-70
2022/09/12 03:10:16;;;;;;;32.05;27.30;;;12.80;99.90;;;;;;5055778;28;20033;-70
2022/09/12 03:13:07;;;;;;;33.75;28.33;;;12.80;99.90;;;;;;5050417;28;20421;-70
2022/09/12 03:15:47;;;;;;;35.55;29.50;;;12.70;99.90;;;;;;5023615;28;20090;-69
2022/09/12 03:18:40;;;;;;;33.05;28.80;;;12.70;99.90;;;;;;5021488;28;20468;-69
2022/09/12 03:21:49;;;;;;;37.42;31.08;;;12.70;99.90;;;;;;5057829;28;20484;-69
2022/09/12 03:24:18;;;;;;;36.13;30.27;;;12.70;99.90;;;;;;5017193;28;20446;-69
2022/09/12 03:26:54;;;;;;;34.33;29.95;;;12.70;99.90;;;;;;5038401;28;20056;-69
2022/09/12 03:29:22;;;;;;;42.95;31.40;;;12.70;99.90;;;;;;5021855;28;20044;-69
2022/09/12 03:31:54;;;;;;;39.47;30.27;;;12.70;99.90;;;;;;5035400;28;20116;-69
2022/09/12 03:34:21;;;;;;;40.63;32.00;;;12.70;99.90;;;;;;5020471;28;20038;-69
2022/09/12 03:36:47;;;;;;;45.30;32.63;;;12.70;99.90;;;;;;5052508;28;20042;-69
2022/09/12 03:39:13;;;;;;;44.35;34.20;;;12.70;99.90;;;;;;5038474;28;20049;-69
2022/09/12 03:41:39;;;;;;;42.65;33.65;;;12.70;99.90;;;;;;5054879;28;20406;-69
2022/09/12 03:44:05;;;;;;;48.00;34.33;;;12.60;99.90;;;;;;5052742;28;20051;-69
2022/09/12 03:46:31;;;;;;;38.83;31.52;;;12.60;99.90;;;;;;5024824;28;20036;-69
2022/09/12 03:48:57;;;;;;;39.45;31.88;;;12.60;99.90;;;;;;5050508;28;20040;-69
2022/09/12 03:51:22;;;;;;;40.35;33.55;;;12.60;99.90;;;;;;5022380;28;20117;-69
2022/09/12 03:53:48;;;;;;;37.45;31.35;;;12.60;99.90;;;;;;5052662;28;20042;-69
2022/09/12 03:56:14;;;;;;;41.00;32.42;;;12.60;99.90;;;;;;5049366;28;20041;-69
2022/09/12 03:58:40;;;;;;;34.67;30.17;;;12.60;99.90;;;;;;5055571;28;20046;-69
2022/09/12 04:01:11;;;;;;;38.00;31.38;;;12.60;99.90;;;;;;5051657;28;20144;-69
2022/09/12 04:03:48;;;;;;;42.25;33.28;;;12.60;99.90;;;;;;5039012;28;20044;-69
2022/09/12 04:06:16;;;;;;;46.63;33.97;;;12.60;99.90;;;;;;5058904;28;20485;-69
2022/09/12 04:08:43;;;;;;;35.85;29.67;;;12.60;99.90;;;;;;5038761;28;20239;-69
2022/09/12 04:11:14;;;;;;;32.30;28.70;;;12.60;99.90;;;;;;5020633;28;20041;-69
2022/09/12 04:13:41;;;;;;;43.10;32.30;;;12.60;99.90;;;;;;5051126;28;20065;-69
2022/09/12 04:16:07;;;;;;;40.30;32.42;;;12.60;99.90;;;;;;5055574;28;20039;-69
2022/09/12 04:18:34;;;;;;;33.22;29.15;;;12.60;99.90;;;;;;5020240;28;20041;-69
2022/09/12 04:21:04;;;;;;;35.50;29.35;;;12.60;99.90;;;;;;5020495;28;20136;-69
2022/09/12 04:23:30;;;;;;;42.38;33.13;;;12.60;99.90;;;;;;5024837;28;20051;-69
2022/09/12 04:25:57;;;;;;;36.90;30.98;;;12.60;99.90;;;;;;5028611;28;20041;-69
2022/09/12 04:28:24;;;;;;;47.30;34.33;;;12.60;99.90;;;;;;5027071;28;20346;-69
2022/09/12 04:30:50;;;;;;;48.85;35.42;;;12.50;99.90;;;;;;5058096;28;20474;-69
2022/09/12 04:33:16;;;;;;;37.13;29.30;;;12.50;99.90;;;;;;5060377;28;20038;-69
2022/09/12 04:35:42;;;;;;;45.45;34.65;;;12.50;99.90;;;;;;5040361;28;20512;-69
2022/09/12 04:38:08;;;;;;;49.50;36.03;;;12.50;99.90;;;;;;5059309;28;20034;-68
2022/09/12 04:40:34;;;;;;;37.80;32.10;;;12.50;99.90;;;;;;5036585;28;20033;-69
2022/09/12 04:43:00;;;;;;;44.25;34.58;;;12.50;99.90;;;;;;5024652;28;20491;-69
2022/09/12 04:45:25;;;;;;;48.08;35.22;;;12.60;99.90;;;;;;5057560;28;20032;-69
2022/09/12 04:47:51;;;;;;;55.88;37.83;;;12.60;99.90;;;;;;5056945;28;20079;-69
2022/09/12 04:50:17;;;;;;;54.95;38.88;;;12.60;99.90;;;;;;5020493;28;20037;-69
2022/09/12 04:52:47;;;;;;;58.38;39.97;;;12.60;99.90;;;;;;5062517;28;20112;-69
2022/09/12 04:55:13;;;;;;;40.50;34.72;;;12.70;99.90;;;;;;5055932;28;20355;-68
2022/09/12 04:57:39;;;;;;;53.25;37.17;;;12.70;99.90;;;;;;5023882;28;20555;-70
2022/09/12 05:00:05;;;;;;;58.15;40.72;;;12.70;99.90;;;;;;5043138;28;20480;-70
2022/09/12 05:02:33;;;;;;;53.88;38.25;;;12.70;99.90;;;;;;5051666;28;20120;-70
2022/09/12 05:04:59;;;;;;;57.83;40.22;;;12.80;99.90;;;;;;5054336;28;20372;-68
2022/09/12 05:07:25;;;;;;;62.05;41.67;;;12.80;99.90;;;;;;5021851;28;20045;-67
2022/09/12 05:09:50;;;;;;;54.22;37.90;;;12.90;99.90;;;;;;5020790;28;20037;-68
2022/09/12 05:12:16;;;;;;;69.88;43.97;;;12.90;99.90;;;;;;5037652;28;20037;-68
2022/09/12 05:14:42;;;;;;;55.97;39.72;;;12.90;99.90;;;;;;5038706;28;20040;-68
2022/09/12 05:17:07;;;;;;;66.80;43.47;;;13.00;99.90;;;;;;5055408;28;20045;-70
2022/09/12 05:19:33;;;;;;;91.63;48.65;;;13.10;99.90;;;;;;5059001;28;20055;-70
2022/09/12 05:21:59;;;;;;;60.05;43.95;;;13.20;99.90;;;;;;5027009;28;20041;-70
2022/09/12 05:24:25;;;;;;;60.05;42.95;;;13.20;99.90;;;;;;5063031;28;20118;-68
2022/09/12 05:26:51;;;;;;;62.42;44.00;;;13.30;99.90;;;;;;5021142;28;20505;-68
2022/09/12 05:29:17;;;;;;;58.20;42.53;;;13.30;99.90;;;;;;5024096;28;20110;-69
2022/09/12 05:31:43;;;;;;;63.15;43.88;;;13.40;99.90;;;;;;5048848;28;20045;-69
2022/09/12 05:34:09;;;;;;;63.08;45.35;;;13.50;99.90;;;;;;5055598;28;20484;-69
2022/09/12 05:36:36;;;;;;;60.08;45.33;;;13.50;99.90;;;;;;5041387;28;20045;-70
2022/09/12 05:39:03;;;;;;;61.05;45.03;;;13.60;99.90;;;;;;5060461;28;20067;-70
2022/09/12 05:41:31;;;;;;;57.45;43.15;;;13.70;99.90;;;;;;5044183;28;20549;-70
2022/09/12 05:44:00;;;;;;;64.43;44.15;;;13.70;99.90;;;;;;5054949;28;20040;-70
2022/09/12 05:46:28;;;;;;;60.08;44.83;;;13.80;99.90;;;;;;5012363;28;20161;-70
2022/09/12 05:48:55;;;;;;;61.40;42.55;;;13.90;99.90;;;;;;5025535;28;20057;-70
2022/09/12 05:51:24;;;;;;;61.67;43.72;;;13.90;99.90;;;;;;5044777;28;20045;-70
2022/09/12 05:53:53;;;;;;;55.92;42.92;;;14.00;99.90;;;;;;5056553;28;20504;-70
2022/09/12 05:56:22;;;;;;;63.50;44.97;;;14.10;99.90;;;;;;5027665;28;20033;-70
2022/09/12 05:58:53;;;;;;;62.17;43.70;;;14.10;99.90;;;;;;5040153;28;20054;-70
2022/09/12 06:01:19;;;;;;;59.25;45.25;;;14.10;99.90;;;;;;5029704;28;20048;-70
2022/09/12 06:03:48;;;;;;;49.72;41.00;;;14.10;99.90;;;;;;5025571;28;20060;-70
2022/09/12 06:06:15;;;;;;;59.22;43.17;;;14.20;99.90;;;;;;5029516;28;20155;-70
2022/09/12 06:08:43;;;;;;;57.65;43.90;;;14.20;99.90;;;;;;5023263;28;20054;-70
2022/09/12 06:11:20;;;;;;;55.47;42.78;;;14.20;99.90;;;;;;5061540;28;20037;-70
2022/09/12 06:13:46;;;;;;;60.20;43.67;;;14.20;99.90;;;;;;5058359;28;20060;-69
2022/09/12 06:16:15;;;;;;;50.33;40.95;;;14.30;99.90;;;;;;5025363;28;20053;-69
2022/09/12 06:18:45;;;;;;;56.95;43.97;;;14.20;99.90;;;;;;5048506;28;20041;-69
2022/09/12 06:21:11;;;;;;;54.47;43.03;;;14.30;99.90;;;;;;5056279;28;20473;-70
2022/09/12 06:23:39;;;;;;;56.50;42.80;;;14.30;99.90;;;;;;5038855;28;20499;-70
2022/09/12 06:26:07;;;;;;;52.15;41.10;;;14.40;99.90;;;;;;5056857;28;20041;-70
2022/09/12 06:28:35;;;;;;;53.05;42.53;;;14.30;99.90;;;;;;5060532;28;20080;-70
2022/09/12 06:31:03;;;;;;;50.78;42.03;;;14.40;99.90;;;;;;5054949;28;20052;-70
2022/09/12 06:33:31;;;;;;;57.00;44.53;;;14.50;99.90;;;;;;5055875;28;20047;-70
2022/09/12 06:36:09;;;;;;;57.20;41.20;;;14.50;99.90;;;;;;5056845;28;20041;-70
2022/09/12 06:38:35;;;;;;;52.33;40.05;;;14.50;99.90;;;;;;5029275;28;20137;-70
2022/09/12 06:41:05;;;;;;;55.05;42.65;;;14.60;99.90;;;;;;5053247;28;20045;-69
2022/09/12 06:43:31;;;;;;;55.60;41.65;;;14.60;99.90;;;;;;5026023;28;20456;-70
2022/09/12 06:45:56;;;;;;;56.25;43.00;;;14.60;99.90;;;;;;5020177;28;20049;-70
2022/09/12 06:48:22;;;;;;;56.38;41.88;;;14.60;99.90;;;;;;5052379;28;20048;-69
2022/09/12 06:50:59;;;;;;;49.95;40.28;;;14.70;99.90;;;;;;5040454;28;20053;-69
2022/09/12 06:53:26;;;;;;;55.10;42.88;;;14.80;99.90;;;;;;5056492;28;20086;-69
2022/09/12 06:56:06;;;;;;;52.28;41.15;;;14.80;99.90;;;;;;5036468;28;20054;-69
2022/09/12 06:58:33;;;;;;;50.75;41.30;;;14.90;99.90;;;;;;5061239;28;20098;-69
2022/09/12 07:01:04;;;;;;;54.00;40.95;;;14.90;99.90;;;;;;5050524;28;20087;-69
2022/09/12 07:03:31;;;;;;;54.28;41.72;;;14.90;99.90;;;;;;5053211;28;20038;-69
2022/09/12 07:06:02;;;;;;;48.10;39.45;;;15.00;99.90;;;;;;5053665;28;20049;-69
2022/09/12 07:08:30;;;;;;;53.25;41.40;;;15.00;99.90;;;;;;5034159;28;20063;-69
2022/09/12 07:11:06;;;;;;;51.97;42.42;;;15.00;99.90;;;;;;5036084;28;20049;-69
2022/09/12 07:13:32;;;;;;;48.22;39.90;;;15.00;99.90;;;;;;5055447;28;20044;-69
2022/09/12 07:16:01;;;;;;;45.28;38.60;;;15.10;99.90;;;;;;5053101;28;20037;-69
2022/09/12 07:18:28;;;;;;;51.47;39.28;;;15.10;99.90;;;;;;5024916;28;20182;-69
2022/09/12 07:20:54;;;;;;;46.05;38.00;;;15.10;99.90;;;;;;5042524;28;20076;-69
2022/09/12 07:23:19;;;;;;;45.78;39.55;;;15.20;99.90;;;;;;5027855;28;20129;-69
2022/09/12 07:25:56;;;;;;;48.72;39.33;;;15.20;99.90;;;;;;5041267;28;20077;-69
2022/09/12 07:28:23;;;;;;;47.30;39.72;;;15.30;99.90;;;;;;5026781;28;20116;-69
2022/09/12 07:30:49;;;;;;;48.95;39.70;;;15.30;99.90;;;;;;5029211;28;20095;-70
2022/09/12 07:33:14;;;;;;;42.40;36.92;;;15.40;99.90;;;;;;5037617;28;20531;-69
2022/09/12 07:35:40;;;;;;;45.40;37.80;;;15.50;99.90;;;;;;5040127;28;20033;-69
2022/09/12 07:38:06;;;;;;;42.25;36.95;;;15.60;99.90;;;;;;5053493;28;20040;-69
2022/09/12 07:40:31;;;;;;;45.97;37.70;;;15.80;99.90;;;;;;5058781;28;20048;-69
2022/09/12 07:42:57;;;;;;;45.38;36.88;;;15.90;99.90;;;;;;5056278;28;20060;-69
2022/09/12 07:45:23;;;;;;;41.15;35.22;;;16.10;99.90;;;;;;5056888;28;20123;-69
2022/09/12 07:47:52;;;;;;;38.85;34.75;;;16.30;99.90;;;;;;5052124;28;20257;-69
2022/09/12 07:50:18;;;;;;;39.40;35.03;;;16.40;99.90;;;;;;5042569;28;20472;-69
2022/09/12 07:52:44;;;;;;;38.78;33.97;;;16.40;99.90;;;;;;5025225;28;20079;-70
2022/09/12 07:55:09;;;;;;;40.03;34.63;;;16.40;99.90;;;;;;5054888;28;20069;-70
2022/09/12 07:57:35;;;;;;;41.95;36.38;;;16.40;99.90;;;;;;5066377;28;20045;-70
2022/09/12 08:00:02;;;;;;;39.05;32.92;;;16.40;99.90;;;;;;5044542;28;20109;-69
2022/09/12 08:02:28;;;;;;;38.65;32.75;;;16.50;99.90;;;;;;5060042;28;20131;-69
2022/09/12 08:04:53;;;;;;;38.45;33.88;;;16.50;99.90;;;;;;5062062;28;20048;-69
2022/09/12 08:07:19;;;;;;;40.38;32.90;;;16.60;99.90;;;;;;5029745;28;20481;-69
2022/09/12 08:09:45;;;;;;;37.97;33.67;;;16.60;99.90;;;;;;5061079;28;20121;-69
2022/09/12 08:12:11;;;;;;;39.97;34.05;;;16.70;99.90;;;;;;5061040;28;20049;-69
2022/09/12 08:14:36;;;;;;;37.95;33.80;;;16.70;99.90;;;;;;5031552;28;20040;-69
2022/09/12 08:17:02;;;;;;;38.80;32.95;;;16.70;99.90;;;;;;5043327;28;20055;-69
2022/09/12 08:19:28;;;;;;;40.25;34.95;;;16.80;99.90;;;;;;5034972;28;20099;-70
2022/09/12 08:21:53;;;;;;;42.05;35.22;;;16.90;99.90;;;;;;5057038;28;20057;-70
2022/09/12 08:24:19;;;;;;;39.55;33.67;;;16.90;99.90;;;;;;5041115;28;20143;-69
2022/09/12 08:26:45;;;;;;;40.60;33.88;;;17.00;99.90;;;;;;5063309;28;20049;-69
2022/09/12 08:29:10;;;;;;;39.55;35.28;;;17.10;99.90;;;;;;5057335;28;20086;-69
2022/09/12 08:31:36;;;;;;;39.15;33.17;;;17.20;99.90;;;;;;5028744;28;20153;-69
2022/09/12 08:34:05;;;;;;;38.58;33.38;;;17.30;99.90;;;;;;5024042;28;20100;-69
2022/09/12 08:36:31;;;;;;;40.15;34.75;;;17.50;99.90;;;;;;5043627;28;20099;-69
2022/09/12 08:39:04;;;;;;;40.28;35.88;;;17.70;99.90;;;;;;5055105;28;20501;-69
2022/09/12 08:41:40;;;;;;;39.25;34.75;;;18.00;99.90;;;;;;5053996;28;20037;-69
2022/09/12 08:44:27;;;;;;;42.83;34.63;;;18.30;99.90;;;;;;5036195;28;20122;-70
2022/09/12 08:47:17;;;;;;;42.80;34.40;;;18.50;99.90;;;;;;5041109;28;20098;-69
2022/09/12 08:50:02;;;;;;;45.55;37.35;;;18.70;99.90;;;;;;5024661;28;20087;-69
2022/09/12 08:52:57;;;;;;;40.47;36.05;;;19.20;99.90;;;;;;5056868;28;20048;-69
2022/09/12 08:56:07;;;;;;;40.33;35.85;;;19.60;99.90;;;;;;5059500;28;20044;-69
2022/09/12 08:58:38;;;;;;;42.63;35.97;;;19.90;99.90;;;;;;5007386;28;20416;-69
2022/09/12 09:01:22;;;;;;;41.95;35.72;;;20.30;99.90;;;;;;5059596;28;20049;-70
2022/09/12 09:04:19;;;;;;;40.55;35.53;;;20.90;99.90;;;;;;5052675;28;20061;-69
2022/09/12 09:07:13;;;;;;;43.35;36.05;;;21.30;99.90;;;;;;5053329;28;20401;-70
2022/09/12 09:09:45;;;;;;;42.00;35.70;;;21.40;99.90;;;;;;5036583;28;20566;-69
2022/09/12 09:12:36;;;;;;;43.30;38.00;;;21.30;99.90;;;;;;5026381;28;20057;-69
2022/09/12 09:15:22;;;;;;;42.42;35.88;;;21.30;99.90;;;;;;5032469;28;20053;-69
2022/09/12 09:18:08;;;;;;;43.00;37.08;;;21.30;99.90;;;;;;5059005;28;20053;-70
2022/09/12 09:20:56;;;;;;;43.47;37.90;;;21.20;99.90;;;;;;5041114;28;20040;-69
2022/09/12 09:23:35;;;;;;;41.88;36.83;;;21.50;99.90;;;;;;5043304;28;20064;-69
2022/09/12 09:26:13;;;;;;;44.80;37.13;;;22.10;99.90;;;;;;5045946;28;20445;-70
2022/09/12 09:28:52;;;;;;;43.70;36.25;;;22.70;99.90;;;;;;5044273;28;20402;-67
2022/09/12 09:31:21;;;;;;;43.28;36.88;;;23.30;99.90;;;;;;5051154;28;20204;-70
2022/09/12 09:33:52;;;;;;;41.85;35.65;;;23.60;99.90;;;;;;5041515;28;20112;-70
2022/09/12 09:36:28;;;;;;;39.50;34.03;;;23.80;99.90;;;;;;5039291;28;20045;-70
2022/09/12 09:39:24;;;;;;;38.20;34.08;;;24.00;99.90;;;;;;5043456;28;20039;-70
2022/09/12 09:42:14;;;;;;;36.30;32.47;;;24.60;99.90;;;;;;5043335;28;20102;-70
2022/09/12 09:44:40;;;;;;;31.98;28.55;;;24.90;99.90;;;;;;5039833;28;20045;-70
2022/09/12 09:47:09;;;;;;;31.02;27.83;;;25.30;99.90;;;;;;5041750;28;20128;-68
2022/09/12 09:49:35;;;;;;;27.75;24.92;;;25.80;99.90;;;;;;5041171;28;20037;-67
2022/09/12 09:52:03;;;;;;;28.95;25.52;;;26.40;99.90;;;;;;5020037;28;20049;-67
2022/09/12 09:54:36;;;;;;;27.40;24.50;;;26.70;99.90;;;;;;5037811;28;20040;-67
2022/09/12 09:57:03;;;;;;;29.70;25.42;;;27.00;98.90;;;;;;5047899;28;20076;-67
2022/09/12 09:59:33;;;;;;;29.73;26.45;;;27.10;97.40;;;;;;5037611;28;20057;-67
2022/09/12 10:02:13;;;;;;;28.02;24.60;;;26.90;95.80;;;;;;5037841;28;20042;-68
2022/09/12 10:04:40;;;;;;;26.48;23.75;;;27.00;95.40;;;;;;5044492;28;20116;-66
2022/09/12 10:07:17;;;;;;;28.05;25.15;;;26.80;95.20;;;;;;5041366;28;20041;-66
2022/09/12 10:10:13;;;;;;;27.38;24.67;;;26.90;94.30;;;;;;5058634;28;20132;-67
2022/09/12 10:12:38;;;;;;;25.50;22.90;;;27.50;95.30;;;;;;5055839;28;20081;-67
2022/09/12 10:15:19;;;;;;;28.45;25.55;;;28.20;93.90;;;;;;5042000;28;20068;-68
2022/09/12 10:17:48;;;;;;;26.00;23.35;;;28.80;92.20;;;;;;5032637;28;20052;-68
2022/09/12 10:20:34;;;;;;;26.33;23.63;;;29.20;90.80;;;;;;5041217;28;20071;-67
2022/09/12 10:23:14;;;;;;;25.88;23.48;;;29.10;87.00;;;;;;5038795;28;20107;-68
2022/09/12 10:25:40;;;;;;;24.23;21.70;;;29.00;80.90;;;;;;5043773;28;20029;-68
2022/09/12 10:28:29;;;;;;;24.55;22.05;;;28.60;81.60;;;;;;5040310;28;20039;-69
2022/09/12 10:30:56;;;;;;;23.50;21.30;;;28.60;81.40;;;;;;5038414;28;20041;-68
2022/09/12 10:33:24;;;;;;;22.17;20.08;;;28.60;78.30;;;;;;5052627;28;20056;-68
2022/09/12 10:35:53;;;;;;;23.13;20.75;;;28.40;78.50;;;;;;5041483;28;20491;-68
2022/09/12 10:38:24;;;;;;;22.38;20.27;;;28.20;75.90;;;;;;5039668;28;20037;-68
2022/09/12 10:41:09;;;;;;;20.35;18.33;;;28.00;77.70;;;;;;5038923;28;20119;-67
2022/09/12 10:43:37;;;;;;;20.00;18.17;;;28.10;80.20;;;;;;5057728;28;20052;-69
2022/09/12 10:46:15;;;;;;;19.95;17.83;;;28.40;80.10;;;;;;5042733;28;20048;-68
2022/09/12 10:48:42;;;;;;;21.73;19.52;;;28.60;78.30;;;;;;5039352;28;20079;-68
2022/09/12 10:51:34;;;;;;;20.88;18.88;;;28.80;76.60;;;;;;5042259;28;20079;-68
2022/09/12 10:54:07;;;;;;;18.30;16.40;;;28.90;72.80;;;;;;5037572;28;20037;-68
2022/09/12 10:56:37;;;;;;;;;;;28.90;75.90;;;;;;5044766;28;20071;-69
2022/09/12 10:59:28;;;;;;;16.17;14.57;;;29.20;74.40;;;;;;5044517;28;19917;-68
2022/09/12 11:02:15;;;;;;;18.10;16.17;;;29.30;71.30;;;;;;5059665;28;20396;-68
2022/09/12 11:04:44;;;;;;;19.48;17.52;;;29.30;70.30;;;;;;5038994;28;20029;-69
2022/09/12 11:07:36;;;;;;;18.88;17.00;;;29.40;71.80;;;;;;5039533;28;20041;-68
2022/09/12 11:10:02;;;;;;;19.27;17.20;;;29.60;67.60;;;;;;5036354;28;20059;-69
2022/09/12 11:12:42;;;;;;;15.98;14.38;;;29.80;69.20;;;;;;5061059;28;20044;-69
2022/09/12 11:15:45;;;;;;;16.23;14.50;;;30.00;67.70;;;;;;5043125;28;20040;-69
2022/09/12 11:18:28;;;;;;;16.50;14.90;;;30.10;68.50;;;;;;5041400;28;20048;-69
2022/09/12 11:21:29;;;;;;;15.30;13.80;;;30.20;67.70;;;;;;5026001;28;20045;-70
2022/09/12 11:24:04;;;;;;;13.57;12.18;;;30.40;63.70;;;;;;5019111;28;20056;-69
2022/09/12 11:26:46;;;;;;;12.02;10.68;;;30.40;64.00;;;;;;5039804;28;20055;-69
2022/09/12 11:29:30;;;;;;;10.52;9.52;;;30.50;64.50;;;;;;5037770;28;20069;-70
2022/09/12 11:32:10;;;;;;;12.63;11.38;;;30.80;62.50;;;;;;5059656;28;20179;-69
2022/09/12 11:35:00;;;;;;;13.90;12.45;;;31.00;62.80;;;;;;5049971;28;20041;-70
2022/09/12 11:38:06;;;;;;;12.25;11.05;;;30.60;61.20;;;;;;5023908;28;20115;-69
2022/09/12 11:40:45;;;;;;;10.98;9.32;;;30.00;62.90;;;;;;5056822;28;20037;-69
2022/09/12 11:43:52;;;;;;;10.10;9.15;;;29.30;63.20;;;;;;5042591;28;20087;-69
2022/09/12 11:46:36;;;;;;;12.18;9.50;;;28.80;63.30;;;;;;5008539;28;20513;-70
2022/09/12 11:49:08;;;;;;;12.02;10.70;;;28.50;64.20;;;;;;5028993;28;20036;-70
2022/09/12 11:52:02;;;;;;;10.85;9.35;;;28.50;65.30;;;;;;5037196;28;20045;-71
2022/09/12 11:54:37;;;;;;;14.82;12.50;;;29.00;66.00;;;;;;5039036;28;20039;-70
2022/09/12 11:57:40;;;;;;;12.68;11.40;;;29.60;63.90;;;;;;5040458;28;20049;-70
2022/09/12 12:00:20;;;;;;;10.43;9.35;;;29.80;64.50;;;;;;5037677;28;20144;-70
2022/09/12 12:02:48;;;;;;;9.90;8.07;;;29.90;64.70;;;;;;5059457;28;20049;-70
2022/09/12 12:05:30;;;;;;;10.98;8.60;;;29.80;62.30;;;;;;5041797;28;20040;-70
2022/09/12 12:07:58;;;;;;;9.43;8.40;;;29.60;60.00;;;;;;5057452;28;20084;-70
2022/09/12 12:10:31;;;;;;;9.88;8.55;;;29.30;60.30;;;;;;5040341;28;20038;-70
2022/09/12 12:12:58;;;;;;;;;;;29.40;60.30;;;;;;5052580;28;20191;-69
2022/09/12 12:15:25;;;;;;;9.70;8.73;;;29.80;59.80;;;;;;5035312;28;19940;-68
2022/09/12 12:18:15;;;;;;;10.93;9.80;;;30.00;61.60;;;;;;5033021;28;20053;-67
2022/09/12 12:20:41;;;;;;;10.85;9.75;;;30.50;61.40;;;;;;5040756;28;20087;-67
2022/09/12 12:23:32;;;;;;;9.98;8.73;;;30.60;60.10;;;;;;5051752;28;20162;-67
2022/09/12 12:26:00;;;;;;;8.63;7.72;;;30.90;59.30;;;;;;5037825;28;20040;-67
2022/09/12 12:28:52;;;;;;;7.93;7.10;;;31.10;58.60;;;;;;5041987;28;20028;-67
2022/09/12 12:31:18;;;;;;;7.10;5.97;;;31.20;57.70;;;;;;5031455;28;20440;-70
2022/09/12 12:33:43;;;;;;;8.00;5.95;;;31.20;55.60;;;;;;5041111;28;20029;-69
2022/09/12 12:36:27;;;;;;;6.57;5.13;;;31.10;56.50;;;;;;5039684;28;20090;-69
2022/09/12 12:38:52;;;;;;;;;;;31.20;56.70;;;;;;5036359;28;20155;-68
2022/09/12 12:41:18;;;;;;;6.40;5.45;;;31.50;56.00;;;;;;5051537;28;20253;-70
2022/09/12 12:43:51;;;;;;;5.88;4.80;;;31.50;55.60;;;;;;5042117;28;20100;-67
2022/09/12 12:46:17;;;;;;;4.38;3.70;;;31.60;54.60;;;;;;5039277;28;20043;-69
2022/09/12 12:49:20;;;;;;;6.22;4.43;;;31.60;54.10;;;;;;5042176;28;20033;-69
2022/09/12 12:52:00;;;;;;;5.05;3.50;;;31.50;54.30;;;;;;5040826;28;20064;-70
2022/09/12 12:54:30;;;;;;;6.20;3.78;;;31.20;53.00;;;;;;5038632;28;20041;-69
2022/09/12 12:57:13;;;;;;;3.60;3.25;;;31.20;53.60;;;;;;5023962;28;20053;-70
2022/09/12 12:59:53;;;;;;;4.22;3.60;;;31.10;53.30;;;;;;5040457;28;20094;-70